Track паламарчук Петр

Time Latitude Longitude Accuracy (66% radius in meters) Altitude (meters) Speed (km/hour) Bearing (degrees) Battery (%) GPS flag
07:25:16 57.204400 60.121109 9.6480007171631 328 0 0 62 1 delete
07:25:09 57.204408 60.121056 10.720000267029 328 2.1099998950958 336.10000610352 62 1 delete
07:25:07 57.204414 60.121019 11.791999816895 328 2.1199998855591 127.30000305176 62 1 delete
07:25:00 57.204458 60.120945 10.720000267029 329 2.1800000667572 32.5 62 1 delete
07:24:59 57.204436 60.120926 10.720000267029 328 2.1700000762939 48.900001525879 62 1 delete
07:24:58 57.204419 60.120893 10.720000267029 329 2.1900000572205 58.200000762939 62 1 delete
07:24:56 57.204383 60.120833 10.720000267029 328 2.2200000286102 34.700000762939 62 1 delete
07:24:49 57.204300 60.120767 10.720000267029 328 0.18999999761581 169.80000305176 62 1 delete
07:24:46 57.204329 60.120752 10.720000267029 327 2.2699999809265 183.39999389648 62 1 delete
07:24:38 57.204377 60.120756 10.720000267029 327 0.17000000178814 52.799999237061 62 1 delete
07:24:29 57.204388 60.120735 10.720000267029 327 0 0 62 1 delete
07:24:28 57.204392 60.120738 9.6480007171631 327 0 0 62 1 delete
07:24:18 57.204413 60.120778 5.3600001335144 325 0 0 62 1 delete
07:24:14 57.204424 60.120796 6.4320001602173 325 0 0 62 1 delete
07:24:07 57.204456 60.120782 6.4320001602173 324 2.3699998855591 36.099998474121 62 1 delete
07:24:05 57.204475 60.120788 7.5040001869202 326 0.94999998807907 196.10000610352 62 1 delete
07:23:56 57.204550 60.120846 6.4320001602173 328 0 0 62 1 delete
07:23:46 57.204527 60.120800 6.4320001602173 328 0.34000000357628 229.19999694824 62 1 delete
07:23:35 57.204536 60.120886 6.4320001602173 328 0 0 62 1 delete
07:23:34 57.204557 60.120867 7.5040001869202 328 2.4300000667572 156.39999389648 62 1 delete
07:23:25 57.204643 60.120795 4.2880001068115 327 0.62999999523163 357.10000610352 62 1 delete
07:23:20 57.204616 60.120821 4.2880001068115 326 2.6400001049042 297.60000610352 62 1 delete
07:23:17 57.204580 60.120894 3.2160000801086 326 2.8099999427795 350.89999389648 62 1 delete
07:23:14 57.204543 60.120860 3.2160000801086 327 0.43000000715256 78.300003051758 62 1 delete
07:23:12 57.204542 60.120827 3.2160000801086 326 0.54000002145767 98.199996948242 62 1 delete
07:23:03 57.204540 60.120788 4.2880001068115 325 0 0 62 1 delete
07:22:53 57.204552 60.120743 3.2160000801086 325 0 0 62 1 delete
07:22:47 57.204530 60.120668 3.2160000801086 324 0.37999999523163 69.900001525879 62 1 delete
07:22:44 57.204498 60.120582 4.2880001068115 323 2.6600000858307 51 62 1 delete
07:22:43 57.204478 60.120525 4.2880001068115 323 2.5899999141693 51.700000762939 62 1 delete
07:22:42 57.204459 60.120469 4.2880001068115 324 2.5199999809265 57.900001525879 62 1 delete
07:22:40 57.204434 60.120343 4.2880001068115 324 2.4300000667572 77.400001525879 62 1 delete
07:22:38 57.204425 60.120199 4.2880001068115 324 2.2999999523163 84.900001525879 62 1 delete
07:22:36 57.204419 60.120053 4.2880001068115 325 2.210000038147 93.099998474121 62 1 delete
07:22:34 57.204414 60.119910 4.2880001068115 325 2.1099998950958 87 62 1 delete
07:22:32 57.204398 60.119767 4.2880001068115 326 2.039999961853 70.599998474121 62 1 delete
07:22:30 57.204372 60.119629 4.2880001068115 326 1.8700000047684 61.900001525879 62 1 delete
07:22:28 57.204346 60.119509 5.3600001335144 326 1.7400000095367 61.099998474121 62 1 delete
07:22:26 57.204324 60.119402 5.3600001335144 327 1.6699999570847 44.700000762939 62 1 delete
07:22:24 57.204296 60.119315 5.3600001335144 328 1.6000000238419 34.099998474121 62 1 delete
07:22:22 57.204268 60.119246 5.3600001335144 328 1.5900000333786 33.900001525879 62 1 delete
07:22:20 57.204239 60.119175 5.3600001335144 329 1.5700000524521 41.200000762939 62 1 delete
07:22:17 57.204210 60.119062 5.3600001335144 331 1.5099999904633 53.799999237061 62 1 delete
07:22:14 57.204187 60.118961 6.4320001602173 332 1.5099999904633 60.299999237061 62 1 delete
07:22:12 57.204170 60.118909 8.576000213623 334 1.5299999713898 17.5 62 1 delete
07:22:11 57.204156 60.118899 7.5040001869202 334 1.460000038147 4.5999999046326 62 1 delete
07:22:08 57.204110 60.118903 6.4320001602173 334 1.4800000190735 6.4000000953674 62 1 delete
07:22:05 57.204065 60.118898 6.4320001602173 335 1.4299999475479 12.10000038147 62 1 delete
07:22:02 57.204019 60.118882 5.3600001335144 335 1.4800000190735 26.700000762939 62 1 delete
07:22:01 57.204004 60.118872 4.2880001068115 336 1.5199999809265 27.39999961853 62 1 delete